createdAt,value
2018-05-03T00:00:03.366Z,4.93
2018-05-03T00:02:31.687Z,5.13
2018-05-03T00:04:59.222Z,5.33
2018-05-03T00:07:26.785Z,5.47
2018-05-03T00:09:54.322Z,5.37
2018-05-03T00:12:22.742Z,4.53
2018-05-03T00:14:50.274Z,5.57
2018-05-03T00:17:17.825Z,4.53
2018-05-03T00:19:46.139Z,3.93
2018-05-03T00:22:13.701Z,4.83
2018-05-03T00:24:41.247Z,4.40
2018-05-03T00:27:08.802Z,5.60
2018-05-03T00:29:36.338Z,5.03
2018-05-03T00:32:04.671Z,5.53
2018-05-03T00:34:32.259Z,4.30
2018-05-03T00:36:59.822Z,5.03
2018-05-03T00:39:27.355Z,5.27
2018-05-03T00:41:54.911Z,4.90
2018-05-03T00:44:22.447Z,4.47
2018-05-03T00:46:50.006Z,4.67
2018-05-03T00:49:17.536Z,4.80
2018-05-03T00:51:45.860Z,5.77
2018-05-03T00:54:25.356Z,4.67
2018-05-03T00:56:53.686Z,4.83
2018-05-03T00:59:21.230Z,4.73
2018-05-03T01:01:49.547Z,4.40
2018-05-03T01:04:17.078Z,4.67
2018-05-03T01:06:44.638Z,5.40
2018-05-03T01:09:12.169Z,4.50
2018-05-03T01:11:39.697Z,4.10
2018-05-03T01:14:07.261Z,3.63
2018-05-03T01:16:35.568Z,4.60
2018-05-03T01:19:03.122Z,4.60
2018-05-03T01:21:30.655Z,4.63
2018-05-03T01:23:58.982Z,5.30
2018-05-03T01:26:26.514Z,6.70
2018-05-03T01:28:54.068Z,4.33
2018-05-03T01:31:22.363Z,4.20
2018-05-03T01:33:49.924Z,4.50
2018-05-03T01:36:27.244Z,4.80
2018-05-03T01:38:54.799Z,3.90
2018-05-03T01:41:22.336Z,4.90
2018-05-03T01:43:49.886Z,4.20
2018-05-03T01:46:18.182Z,4.40
2018-05-03T01:48:45.734Z,4.83
2018-05-03T01:51:13.266Z,4.30
2018-05-03T01:53:41.595Z,4.93
2018-05-03T01:56:09.133Z,4.23
2018-05-03T01:58:36.695Z,5.00
2018-05-03T02:01:04.240Z,7.00
2018-05-03T02:03:31.793Z,5.80
2018-05-03T02:06:00.091Z,4.73
2018-05-03T02:08:27.651Z,5.10
2018-05-03T02:10:55.218Z,4.90
2018-05-03T02:13:22.774Z,4.87
2018-05-03T02:15:50.315Z,5.03
2018-05-03T02:18:17.874Z,4.70
2018-05-03T02:20:45.407Z,4.30
2018-05-03T02:23:12.966Z,5.33
2018-05-03T02:25:41.263Z,4.30
2018-05-03T02:28:09.585Z,4.67
2018-05-03T02:30:37.114Z,4.67
2018-05-03T02:33:04.674Z,4.73
2018-05-03T02:35:32.221Z,4.50
2018-05-03T02:38:00.554Z,4.80
2018-05-03T02:40:28.095Z,4.83
2018-05-03T02:42:55.662Z,4.83
2018-05-03T02:45:23.191Z,4.53
2018-05-03T02:47:50.759Z,4.77
2018-05-03T02:50:18.299Z,4.63
2018-05-03T02:52:46.623Z,4.77
2018-05-03T02:55:14.163Z,5.47
2018-05-03T02:57:59.644Z,5.47
2018-05-03T03:00:44.802Z,6.30
2018-05-03T03:03:30.079Z,5.23
2018-05-03T03:06:09.596Z,5.00
2018-05-03T03:08:55.605Z,4.70
2018-05-03T03:14:50.094Z,5.10
2018-05-03T03:17:36.087Z,5.03
2018-05-03T03:20:37.222Z,4.87
2018-05-03T03:23:22.525Z,4.70
2018-05-03T03:26:08.409Z,4.60
2018-05-03T03:28:54.414Z,3.93
2018-05-03T03:31:39.766Z,4.80
2018-05-03T03:34:13.124Z,5.93
2018-05-03T03:37:01.355Z,4.93
2018-05-03T03:39:40.776Z,4.90
2018-05-03T03:42:42.682Z,4.90
2018-05-03T03:45:10.230Z,4.20
2018-05-03T03:47:37.768Z,4.20
2018-05-03T03:50:05.323Z,5.07
2018-05-03T03:52:32.858Z,4.83
2018-05-03T03:55:01.194Z,4.37
2018-05-03T03:57:28.732Z,4.20
2018-05-03T03:59:56.271Z,5.43
2018-05-03T04:02:23.848Z,4.60
2018-05-03T04:04:51.414Z,4.23
2018-05-03T04:07:18.977Z,4.80
2018-05-03T04:09:46.525Z,4.60
2018-05-03T04:12:14.076Z,4.60
2018-05-03T04:14:41.616Z,4.53
2018-05-03T04:17:09.939Z,4.03
2018-05-03T04:19:49.540Z,4.03
2018-05-03T04:22:39.499Z,4.70
2018-05-03T04:25:18.669Z,4.43
2018-05-03T04:27:46.218Z,4.40
2018-05-03T04:30:14.519Z,4.47
2018-05-03T04:32:42.084Z,4.27
2018-05-03T04:35:09.624Z,4.70
2018-05-03T04:37:37.944Z,4.40
2018-05-03T04:40:05.478Z,4.33
2018-05-03T04:42:33.029Z,4.07
2018-05-03T04:45:00.572Z,4.67
2018-05-03T04:47:28.900Z,4.13
2018-05-03T04:49:56.432Z,4.33
2018-05-03T04:52:23.995Z,4.23
2018-05-03T04:54:51.539Z,4.30
2018-05-03T04:57:19.098Z,4.10
2018-05-03T04:59:46.630Z,4.40
2018-05-03T05:02:14.245Z,4.80
2018-05-03T05:04:41.805Z,4.13
2018-05-03T05:07:09.363Z,4.30
2018-05-03T05:09:36.902Z,4.40
2018-05-03T05:12:04.431Z,4.40
2018-05-03T05:14:31.977Z,4.50
2018-05-03T05:16:59.511Z,4.73
2018-05-03T05:19:27.064Z,4.40
2018-05-03T05:21:54.603Z,4.90
2018-05-03T05:24:22.158Z,4.23
2018-05-03T05:26:49.694Z,4.93
2018-05-03T05:29:18.011Z,4.70
2018-05-03T05:31:45.543Z,4.50
2018-05-03T05:34:13.872Z,4.97
2018-05-03T05:36:41.411Z,4.63
2018-05-03T05:39:08.967Z,4.97
2018-05-03T05:41:36.507Z,4.33
2018-05-03T05:44:04.916Z,4.63
2018-05-03T05:46:32.450Z,4.67
2018-05-03T05:49:00.002Z,4.43
2018-05-03T05:51:28.308Z,5.23
2018-05-03T05:53:55.875Z,4.60
2018-05-03T05:56:23.429Z,5.47
2018-05-03T05:58:50.991Z,4.50
2018-05-03T06:01:18.514Z,4.67
2018-05-03T06:03:46.832Z,5.10
2018-05-03T06:06:14.367Z,5.30
2018-05-03T06:08:41.924Z,4.70
2018-05-03T06:11:09.463Z,4.37
2018-05-03T06:13:37.790Z,5.10
2018-05-03T06:16:05.482Z,5.87
2018-05-03T06:18:34.034Z,3.97
2018-05-03T06:21:02.426Z,5.30
2018-05-03T06:23:29.981Z,4.70
2018-05-03T06:25:57.582Z,4.50
2018-05-03T06:28:25.100Z,5.07
2018-05-03T06:30:52.630Z,5.00
2018-05-03T06:33:20.210Z,4.50
2018-05-03T06:35:47.746Z,4.90
2018-05-03T06:38:15.303Z,5.53
2018-05-03T06:40:43.598Z,5.57
2018-05-03T06:43:11.135Z,5.53
2018-05-03T06:45:39.465Z,5.33
2018-05-03T06:48:07.109Z,5.43
2018-05-03T06:50:34.668Z,5.10
2018-05-03T06:53:02.196Z,5.57
2018-05-03T06:55:30.518Z,5.37
2018-05-03T06:57:58.053Z,5.20
2018-05-03T07:00:25.613Z,5.20
2018-05-03T07:02:53.149Z,5.83
2018-05-03T07:05:21.481Z,5.40
2018-05-03T07:07:49.124Z,5.23
2018-05-03T07:10:16.679Z,5.30
2018-05-03T07:12:44.207Z,6.00
2018-05-03T07:15:12.529Z,5.00
2018-05-03T07:17:40.067Z,5.07
2018-05-03T07:20:07.623Z,5.03
2018-05-03T07:22:35.153Z,5.30
2018-05-03T07:25:03.486Z,5.20
2018-05-03T07:27:31.789Z,5.37
2018-05-03T07:29:59.346Z,6.37
2018-05-03T07:32:26.979Z,4.17
2018-05-03T07:34:54.549Z,5.00
2018-05-03T07:37:22.096Z,5.00
2018-05-03T07:39:49.651Z,5.90
2018-05-03T07:42:17.183Z,5.67
2018-05-03T07:44:45.502Z,5.40
2018-05-03T07:47:13.083Z,5.77
2018-05-03T07:49:41.382Z,5.50
2018-05-03T07:52:08.922Z,5.17
2018-05-03T07:54:36.483Z,5.47
2018-05-03T07:57:04.934Z,5.33
2018-05-03T07:59:32.497Z,5.50
2018-05-03T08:02:00.067Z,5.30
2018-05-03T08:04:27.627Z,5.53
2018-05-03T08:06:55.158Z,5.30
2018-05-03T08:09:22.714Z,5.20
2018-05-03T08:11:50.253Z,6.20
2018-05-03T08:14:18.574Z,5.10
2018-05-03T08:16:46.345Z,5.03
2018-05-03T08:19:13.919Z,5.07
2018-05-03T08:21:41.450Z,5.00
2018-05-03T08:24:09.010Z,6.00
2018-05-03T08:26:36.541Z,6.40
2018-05-03T08:29:04.869Z,5.20
2018-05-03T08:31:32.403Z,5.20
2018-05-03T08:33:59.958Z,5.33
2018-05-03T08:36:27.498Z,6.30
2018-05-03T08:38:55.796Z,6.10
2018-05-03T08:41:23.388Z,4.90
2018-05-03T08:43:50.912Z,5.40
2018-05-03T08:46:18.474Z,5.03
2018-05-03T08:48:46.010Z,5.57
2018-05-03T08:51:14.337Z,5.70
2018-05-03T08:53:41.870Z,5.90
2018-05-03T08:56:09.427Z,4.80
2018-05-03T08:58:36.962Z,5.20
2018-05-03T09:01:05.282Z,5.60
2018-05-03T09:03:32.826Z,5.23
2018-05-03T09:06:00.385Z,5.70
2018-05-03T09:08:27.923Z,6.23
2018-05-03T09:10:56.248Z,4.70
2018-05-03T09:13:23.778Z,5.50
2018-05-03T09:15:51.329Z,5.43
2018-05-03T09:18:19.622Z,5.00
2018-05-03T09:20:47.937Z,4.60
2018-05-03T09:23:15.461Z,5.07
2018-05-03T09:25:43.018Z,5.60
2018-05-03T09:28:10.558Z,5.57
2018-05-03T09:30:38.878Z,6.13
2018-05-03T09:33:06.417Z,6.23
2018-05-03T09:35:33.972Z,5.73
2018-05-03T09:38:01.566Z,5.07
2018-05-03T09:40:29.126Z,5.97
2018-05-03T09:42:57.430Z,6.13
2018-05-03T09:45:24.990Z,6.47
2018-05-03T09:47:53.293Z,6.03
2018-05-03T09:50:21.729Z,5.47
2018-05-03T09:52:49.266Z,5.30
2018-05-03T09:55:16.830Z,5.87
2018-05-03T09:57:44.363Z,5.33
2018-05-03T10:00:11.999Z,5.67
2018-05-03T10:02:39.510Z,6.70
2018-05-03T10:05:07.826Z,5.60
2018-05-03T10:07:35.361Z,5.97
2018-05-03T10:10:02.936Z,6.23
2018-05-03T10:12:30.474Z,6.07
2018-05-03T10:14:58.055Z,6.13
2018-05-03T10:17:25.595Z,7.27
2018-05-03T10:19:53.149Z,6.20
2018-05-03T10:22:20.689Z,5.70
2018-05-03T10:24:48.256Z,6.10
2018-05-03T10:27:16.561Z,6.43
2018-05-03T10:29:44.109Z,6.20
2018-05-03T10:32:11.648Z,6.60
2018-05-03T10:34:39.202Z,6.60
2018-05-03T10:37:06.746Z,6.97
2018-05-03T10:39:35.043Z,6.67
2018-05-03T10:42:02.655Z,6.67
2018-05-03T10:44:30.169Z,6.00
2018-05-03T10:46:57.725Z,6.07
2018-05-03T10:49:25.263Z,6.67
2018-05-03T10:51:53.581Z,6.93
2018-05-03T10:54:21.121Z,7.07
2018-05-03T10:56:48.678Z,7.47
2018-05-03T10:59:16.206Z,6.87
2018-05-03T11:01:43.769Z,7.30
2018-05-03T11:04:12.079Z,7.27
2018-05-03T11:06:39.638Z,6.20
2018-05-03T11:09:07.169Z,6.73
2018-05-03T11:11:35.490Z,6.67
2018-05-03T11:14:03.030Z,6.77
2018-05-03T11:16:30.586Z,6.37
2018-05-03T11:18:58.150Z,8.50
2018-05-03T11:21:25.710Z,7.40
2018-05-03T11:23:53.290Z,6.70
2018-05-03T11:26:20.853Z,6.20
2018-05-03T11:28:48.389Z,6.40
2018-05-03T11:31:15.950Z,8.07
2018-05-03T11:33:43.495Z,7.00
2018-05-03T11:36:11.818Z,6.60
2018-05-03T11:38:39.349Z,6.73
2018-05-03T11:41:06.906Z,7.10
2018-05-03T11:43:34.443Z,7.50
2018-05-03T11:46:02.764Z,6.97
2018-05-03T11:48:31.061Z,6.13
2018-05-03T11:50:58.616Z,6.73
2018-05-03T11:53:26.152Z,7.00
2018-05-03T11:55:53.723Z,7.00
2018-05-03T11:58:21.257Z,7.20
2018-05-03T12:00:48.812Z,6.13
2018-05-03T12:03:17.118Z,6.97
2018-05-03T12:05:44.676Z,6.93
2018-05-03T12:08:12.216Z,6.70
2018-05-03T12:10:39.800Z,6.50
2018-05-03T12:13:07.326Z,6.40
2018-05-03T12:15:35.649Z,7.17
2018-05-03T12:18:03.172Z,6.67
2018-05-03T12:20:30.730Z,6.20
2018-05-03T12:22:59.032Z,6.00
2018-05-03T12:25:26.578Z,6.20
2018-05-03T12:27:54.118Z,6.47
2018-05-03T12:30:22.442Z,6.90
2018-05-03T12:32:49.984Z,8.17
2018-05-03T12:35:17.560Z,5.90
2018-05-03T12:37:45.099Z,6.90
2018-05-03T12:40:13.405Z,7.60
2018-05-03T12:42:41.033Z,6.10
2018-05-03T12:45:08.529Z,5.57
2018-05-03T12:47:36.082Z,5.47
2018-05-03T12:50:03.615Z,5.67
2018-05-03T12:52:31.171Z,5.73
2018-05-03T12:54:58.713Z,6.67
2018-05-03T12:57:27.038Z,6.27
2018-05-03T12:59:54.572Z,7.07
2018-05-03T13:02:22.135Z,6.73
2018-05-03T13:04:49.680Z,6.20
2018-05-03T13:07:17.250Z,6.03
2018-05-03T13:09:44.785Z,7.10
2018-05-03T13:12:13.109Z,6.73
2018-05-03T13:14:40.640Z,6.50
2018-05-03T13:17:08.241Z,5.83
2018-05-03T13:19:35.781Z,6.37
2018-05-03T13:22:03.344Z,6.70
2018-05-03T13:24:30.880Z,6.13
2018-05-03T13:26:58.463Z,7.30
2018-05-03T13:29:26.005Z,6.40
2018-05-03T13:31:53.563Z,7.10
2018-05-03T13:34:21.099Z,7.03
2018-05-03T13:36:49.469Z,7.07
2018-05-03T13:39:16.996Z,5.87
2018-05-03T13:41:44.555Z,6.73
2018-05-03T13:44:12.090Z,6.97
2018-05-03T13:46:39.662Z,7.63
2018-05-03T13:49:07.201Z,6.83
2018-05-03T13:51:34.757Z,6.90
2018-05-03T13:54:02.299Z,6.63
2018-05-03T13:56:30.628Z,7.57
2018-05-03T13:58:58.164Z,7.63
2018-05-03T14:01:25.720Z,7.10
2018-05-03T14:03:53.255Z,7.47
2018-05-03T14:06:21.579Z,7.07
2018-05-03T14:08:49.114Z,6.77
2018-05-03T14:11:16.673Z,7.27
2018-05-03T14:13:44.205Z,7.57
2018-05-03T14:16:11.774Z,8.30
2018-05-03T14:18:40.080Z,7.70
2018-05-03T14:21:07.697Z,7.80
2018-05-03T14:23:35.218Z,8.20
2018-05-03T14:26:02.781Z,8.30
2018-05-03T14:28:30.314Z,7.90
2018-05-03T14:30:57.880Z,8.70
2018-05-03T14:33:25.419Z,8.60
2018-05-03T14:35:53.747Z,9.47
2018-05-03T14:38:21.304Z,9.77
2018-05-03T14:40:48.845Z,9.57
2018-05-03T14:43:16.409Z,10.60
2018-05-03T14:45:43.958Z,9.83
2018-05-03T14:48:11.520Z,9.33
2018-05-03T14:50:39.075Z,10.20
2018-05-03T14:53:06.642Z,10.47
2018-05-03T14:55:34.180Z,9.30
2018-05-03T14:58:02.508Z,10.60
2018-05-03T15:00:30.043Z,9.10
2018-05-03T15:02:57.603Z,10.43
2018-05-03T15:05:25.133Z,10.23
2018-05-03T15:07:53.462Z,10.47
2018-05-03T15:10:21.005Z,10.80
2018-05-03T15:12:48.584Z,10.80
2018-05-03T15:15:16.135Z,11.10
2018-05-03T15:17:43.702Z,11.80
2018-05-03T15:20:11.238Z,13.03
2018-05-03T15:22:38.806Z,14.13
2018-05-03T15:25:06.355Z,13.60
2018-05-03T15:27:33.929Z,13.00
2018-05-03T15:30:01.473Z,13.60
2018-05-03T15:32:29.042Z,14.47
2018-05-03T15:34:56.586Z,14.07
2018-05-03T15:37:24.151Z,14.83
2018-05-03T15:39:51.695Z,15.53
2018-05-03T15:42:20.023Z,14.80
2018-05-03T15:44:47.567Z,13.80
2018-05-03T15:47:15.119Z,15.00
2018-05-03T15:49:42.664Z,14.83
2018-05-03T15:52:10.225Z,13.67
2018-05-03T15:54:37.761Z,14.07
2018-05-03T15:57:06.096Z,14.80
2018-05-03T15:59:33.643Z,13.97
2018-05-03T16:02:01.212Z,12.80
2018-05-03T16:04:28.754Z,13.50
2018-05-03T16:06:56.326Z,13.70
2018-05-03T16:09:23.862Z,13.90
2018-05-03T16:11:51.436Z,14.20
2018-05-03T16:14:19.013Z,15.77
2018-05-03T16:16:46.560Z,13.97
2018-05-03T16:19:14.103Z,16.70
2018-05-03T16:21:41.666Z,15.00
2018-05-03T16:24:09.212Z,15.00
2018-05-03T16:26:37.540Z,15.47
2018-05-03T16:29:05.077Z,13.33
2018-05-03T16:31:32.619Z,14.73
2018-05-03T16:34:00.187Z,15.27
2018-05-03T16:36:27.743Z,13.33
2018-05-03T16:38:55.306Z,13.20
2018-05-03T16:41:22.867Z,13.40
2018-05-03T16:43:50.437Z,14.30
2018-05-03T16:46:17.980Z,13.90
2018-05-03T16:48:45.533Z,13.40
2018-05-03T16:51:13.829Z,12.50
2018-05-03T16:53:41.391Z,12.90
2018-05-03T16:56:08.932Z,13.73
2018-05-03T16:58:37.272Z,13.40
2018-05-03T17:01:04.806Z,14.57
2018-05-03T17:03:32.371Z,11.83
2018-05-03T17:05:59.917Z,13.33
2018-05-03T17:08:27.483Z,13.10
2018-05-03T17:10:55.017Z,11.97
2018-05-03T17:13:22.578Z,10.63
2018-05-03T17:15:50.121Z,11.70
2018-05-03T17:18:18.451Z,10.43
2018-05-03T17:20:45.994Z,11.10
2018-05-03T17:23:13.564Z,10.60
2018-05-03T17:25:41.107Z,10.60
2018-05-03T17:28:08.671Z,10.27
2018-05-03T17:30:36.211Z,11.77
2018-05-03T17:33:03.775Z,10.60
2018-05-03T17:35:31.309Z,10.90
2018-05-03T17:37:59.649Z,10.83
2018-05-03T17:40:27.191Z,11.00
2018-05-03T17:42:54.759Z,11.47
2018-05-03T17:45:22.303Z,10.90
2018-05-03T17:47:49.863Z,11.03
2018-05-03T17:50:17.399Z,11.10
2018-05-03T17:52:45.728Z,9.97
2018-05-03T17:55:13.263Z,11.43
2018-05-03T17:57:40.819Z,9.93
2018-05-03T18:00:08.393Z,10.57
2018-05-03T18:02:35.956Z,10.27
2018-05-03T18:05:03.490Z,9.93
2018-05-03T18:07:31.040Z,9.53
2018-05-03T18:09:59.351Z,10.33
2018-05-03T18:12:26.910Z,9.43
2018-05-03T18:14:54.471Z,10.30
2018-05-03T18:17:22.034Z,10.67
2018-05-03T18:19:49.579Z,10.30
2018-05-03T18:22:17.140Z,9.17
2018-05-03T18:24:44.683Z,10.17
2018-05-03T18:27:13.008Z,10.13
2018-05-03T18:29:40.551Z,9.80
2018-05-03T18:32:08.089Z,10.57
2018-05-03T18:34:35.655Z,9.80
2018-05-03T18:37:03.188Z,9.93
2018-05-03T18:39:31.572Z,9.90
2018-05-03T18:41:59.874Z,8.97
2018-05-03T18:44:27.431Z,9.30
2018-05-03T18:46:54.975Z,9.90
2018-05-03T18:49:23.316Z,9.23
2018-05-03T18:51:50.854Z,9.03
2018-05-03T18:54:18.408Z,8.70
2018-05-03T18:56:45.947Z,9.03
2018-05-03T18:59:13.513Z,9.10
2018-05-03T19:01:41.050Z,9.17
2018-05-03T19:04:09.448Z,8.43
2018-05-03T19:06:36.993Z,10.27
2018-05-03T19:11:58.726Z,8.87
2018-05-03T19:14:27.073Z,9.50
2018-05-03T19:16:54.618Z,8.93
2018-05-03T19:19:22.177Z,8.87
2018-05-03T19:21:49.725Z,8.77
2018-05-03T19:24:17.285Z,8.50
2018-05-03T19:26:44.821Z,9.13
2018-05-03T19:29:12.381Z,9.30
2018-05-03T19:31:40.678Z,8.70
2018-05-03T19:34:09.479Z,8.57
2018-05-03T19:36:37.027Z,9.60
2018-05-03T19:39:04.617Z,9.53
2018-05-03T19:41:32.148Z,8.57
2018-05-03T19:43:59.707Z,8.50
2018-05-03T19:46:27.249Z,9.33
2018-05-03T19:48:54.816Z,8.63
2018-05-03T19:51:22.363Z,9.63
2018-05-03T19:53:50.686Z,8.70
2018-05-03T19:56:18.222Z,8.70
2018-05-03T19:58:45.786Z,7.90
2018-05-03T20:01:13.434Z,9.00
2018-05-03T20:03:40.989Z,8.80
2018-05-03T20:06:08.548Z,8.93
2018-05-03T20:08:36.870Z,8.90
2018-05-03T20:11:04.407Z,8.30
2018-05-03T20:13:32.075Z,8.60
2018-05-03T20:15:59.607Z,7.70
2018-05-03T20:18:27.918Z,8.03
2018-05-03T20:20:55.454Z,8.17
2018-05-03T20:23:23.011Z,7.50
2018-05-03T20:25:50.559Z,7.57
2018-05-03T20:28:18.895Z,8.23
2018-05-03T20:30:46.428Z,7.90
2018-05-03T20:33:13.988Z,8.40
2018-05-03T20:35:41.525Z,8.40
2018-05-03T20:38:09.081Z,8.90
2018-05-03T20:40:37.388Z,8.57
2018-05-03T20:43:04.942Z,8.23
2018-05-03T20:45:32.471Z,7.90
2018-05-03T20:48:00.800Z,8.50
2018-05-03T20:50:28.329Z,8.77
2018-05-03T20:52:55.865Z,9.10
2018-05-03T20:55:24.187Z,9.50
2018-05-03T20:57:51.729Z,10.33
2018-05-03T21:00:19.290Z,9.00
2018-05-03T21:02:46.822Z,9.20
2018-05-03T21:05:15.145Z,10.00
2018-05-03T21:07:42.706Z,9.20
2018-05-03T21:10:10.268Z,8.97
2018-05-03T21:12:37.885Z,10.83
2018-05-03T21:15:05.397Z,9.43
2018-05-03T21:17:32.955Z,9.43
2018-05-03T21:20:00.582Z,9.60
2018-05-03T21:22:28.122Z,9.97
2018-05-03T21:24:56.437Z,9.00
2018-05-03T21:27:23.975Z,8.70
2018-05-03T21:29:52.302Z,9.47
2018-05-03T21:32:19.842Z,9.60
2018-05-03T21:34:47.396Z,9.57
2018-05-03T21:37:14.935Z,9.50
2018-05-03T21:39:42.493Z,9.37
2018-05-03T21:42:10.026Z,10.07
2018-05-03T21:44:38.352Z,8.83
2018-05-03T21:47:05.897Z,8.37
2018-05-03T21:49:33.464Z,10.37
2018-05-03T21:52:01.004Z,9.20
2018-05-03T21:54:29.325Z,9.27
2018-05-03T21:56:56.862Z,9.17
2018-05-03T21:59:24.412Z,9.70
2018-05-03T22:01:51.955Z,9.20
2018-05-03T22:04:20.284Z,8.47
2018-05-03T22:06:47.823Z,8.93
2018-05-03T22:09:15.379Z,9.27
2018-05-03T22:11:42.922Z,8.90
2018-05-03T22:14:11.257Z,9.70
2018-05-03T22:16:38.793Z,8.57
2018-05-03T22:19:06.357Z,9.83
2018-05-03T22:21:33.901Z,8.80
2018-05-03T22:24:01.458Z,9.60
2018-05-03T22:26:28.994Z,9.87
2018-05-03T22:28:57.314Z,9.10
2018-05-03T22:31:24.853Z,9.53
2018-05-03T22:33:52.425Z,8.60
2018-05-03T22:36:19.969Z,8.77
2018-05-03T22:38:47.531Z,9.03
2018-05-03T22:41:15.076Z,8.80
2018-05-03T22:43:43.413Z,9.47
2018-05-03T22:46:11.709Z,9.07
2018-05-03T22:48:39.253Z,8.67
2018-05-03T22:51:06.820Z,8.10
2018-05-03T22:53:34.358Z,8.17
2018-05-03T22:56:01.929Z,9.37
2018-05-03T22:58:29.468Z,8.50
2018-05-03T23:00:57.020Z,7.90
2018-05-03T23:03:24.564Z,7.97
2018-05-03T23:05:52.126Z,8.67
2018-05-03T23:08:19.663Z,8.80
2018-05-03T23:10:47.992Z,7.57
2018-05-03T23:13:15.522Z,7.27
2018-05-03T23:15:43.078Z,7.80
2018-05-03T23:18:10.609Z,7.77
2018-05-03T23:20:38.172Z,7.57
2018-05-03T23:23:06.474Z,7.20
2018-05-03T23:25:34.031Z,6.80
2018-05-03T23:28:02.337Z,6.63
2018-05-03T23:30:29.925Z,7.17
2018-05-03T23:32:57.465Z,7.37
2018-05-03T23:35:25.028Z,6.90
2018-05-03T23:37:52.562Z,7.37
2018-05-03T23:40:20.113Z,6.63
2018-05-03T23:42:47.645Z,7.20
2018-05-03T23:45:15.967Z,6.30
2018-05-03T23:47:43.504Z,7.37
2018-05-03T23:50:11.063Z,6.00
2018-05-03T23:52:39.378Z,7.37
2018-05-03T23:55:06.927Z,6.30
2018-05-03T23:57:34.463Z,6.70
